sensor_id;sensor_type;location;lat;lon;timestamp;P1;durP1;ratioP1;P2;durP2;ratioP2
55114;SDS011;41010;53.252;5.786;2023-05-07T00:00:02;10.98;;;6.50;;
55114;SDS011;41010;53.252;5.786;2023-05-07T00:02:32;10.35;;;6.93;;
55114;SDS011;41010;53.252;5.786;2023-05-07T00:05:00;10.57;;;7.15;;
55114;SDS011;41010;53.252;5.786;2023-05-07T00:07:28;12.90;;;7.88;;
55114;SDS011;41010;53.252;5.786;2023-05-07T00:09:56;11.07;;;7.10;;
55114;SDS011;41010;53.252;5.786;2023-05-07T00:12:24;13.30;;;7.93;;
55114;SDS011;41010;53.252;5.786;2023-05-07T00:14:51;9.95;;;6.95;;
55114;SDS011;41010;53.252;5.786;2023-05-07T00:17:18;11.23;;;6.90;;
55114;SDS011;41010;53.252;5.786;2023-05-07T00:19:45;11.20;;;7.63;;
55114;SDS011;41010;53.252;5.786;2023-05-07T00:22:13;10.88;;;7.65;;
55114;SDS011;41010;53.252;5.786;2023-05-07T00:24:40;11.30;;;7.22;;
55114;SDS011;41010;53.252;5.786;2023-05-07T00:27:09;12.30;;;7.50;;
55114;SDS011;41010;53.252;5.786;2023-05-07T00:29:36;12.73;;;7.72;;
55114;SDS011;41010;53.252;5.786;2023-05-07T00:32:03;11.73;;;7.78;;
55114;SDS011;41010;53.252;5.786;2023-05-07T00:34:31;10.77;;;7.95;;
55114;SDS011;41010;53.252;5.786;2023-05-07T00:36:58;13.05;;;8.40;;
55114;SDS011;41010;53.252;5.786;2023-05-07T00:39:25;12.50;;;8.63;;
55114;SDS011;41010;53.252;5.786;2023-05-07T00:41:52;12.75;;;7.97;;
55114;SDS011;41010;53.252;5.786;2023-05-07T00:44:21;12.95;;;8.43;;
55114;SDS011;41010;53.252;5.786;2023-05-07T00:46:49;15.13;;;9.15;;
55114;SDS011;41010;53.252;5.786;2023-05-07T00:49:16;14.85;;;9.05;;
55114;SDS011;41010;53.252;5.786;2023-05-07T00:51:43;15.27;;;9.25;;
55114;SDS011;41010;53.252;5.786;2023-05-07T00:54:11;13.60;;;8.70;;
55114;SDS011;41010;53.252;5.786;2023-05-07T00:56:39;15.40;;;8.35;;
55114;SDS011;41010;53.252;5.786;2023-05-07T00:59:06;10.68;;;7.60;;
55114;SDS011;41010;53.252;5.786;2023-05-07T01:01:35;12.00;;;8.25;;
55114;SDS011;41010;53.252;5.786;2023-05-07T01:04:02;12.90;;;8.40;;
55114;SDS011;41010;53.252;5.786;2023-05-07T01:06:30;11.82;;;7.78;;
55114;SDS011;41010;53.252;5.786;2023-05-07T01:08:59;13.80;;;7.70;;
55114;SDS011;41010;53.252;5.786;2023-05-07T01:11:27;13.55;;;8.27;;
55114;SDS011;41010;53.252;5.786;2023-05-07T01:13:54;14.50;;;8.65;;
55114;SDS011;41010;53.252;5.786;2023-05-07T01:16:21;11.05;;;7.15;;
55114;SDS011;41010;53.252;5.786;2023-05-07T01:18:50;11.23;;;7.72;;
55114;SDS011;41010;53.252;5.786;2023-05-07T01:21:17;10.88;;;7.25;;
55114;SDS011;41010;53.252;5.786;2023-05-07T01:23:46;11.77;;;7.88;;
55114;SDS011;41010;53.252;5.786;2023-05-07T01:26:14;12.75;;;7.75;;
55114;SDS011;41010;53.252;5.786;2023-05-07T01:28:41;11.30;;;8.07;;
55114;SDS011;41010;53.252;5.786;2023-05-07T01:31:08;13.55;;;7.90;;
55114;SDS011;41010;53.252;5.786;2023-05-07T01:33:36;12.68;;;8.05;;
55114;SDS011;41010;53.252;5.786;2023-05-07T01:36:04;12.35;;;7.57;;
55114;SDS011;41010;53.252;5.786;2023-05-07T01:38:33;11.50;;;7.32;;
55114;SDS011;41010;53.252;5.786;2023-05-07T01:41:02;12.98;;;8.18;;
55114;SDS011;41010;53.252;5.786;2023-05-07T01:43:29;11.18;;;7.50;;
55114;SDS011;41010;53.252;5.786;2023-05-07T01:45:57;12.70;;;7.68;;
55114;SDS011;41010;53.252;5.786;2023-05-07T01:48:25;13.68;;;7.72;;
55114;SDS011;41010;53.252;5.786;2023-05-07T01:50:53;13.48;;;8.13;;
55114;SDS011;41010;53.252;5.786;2023-05-07T01:53:20;15.32;;;8.40;;
55114;SDS011;41010;53.252;5.786;2023-05-07T01:55:47;12.55;;;8.07;;
55114;SDS011;41010;53.252;5.786;2023-05-07T01:58:16;12.35;;;7.72;;
55114;SDS011;41010;53.252;5.786;2023-05-07T02:00:43;11.95;;;8.07;;
55114;SDS011;41010;53.252;5.786;2023-05-07T02:03:10;11.40;;;7.63;;
55114;SDS011;41010;53.252;5.786;2023-05-07T02:05:38;13.60;;;8.38;;
55114;SDS011;41010;53.252;5.786;2023-05-07T02:08:05;18.90;;;8.90;;
55114;SDS011;41010;53.252;5.786;2023-05-07T02:10:32;15.35;;;9.48;;
55114;SDS011;41010;53.252;5.786;2023-05-07T02:13:01;12.32;;;8.27;;
55114;SDS011;41010;53.252;5.786;2023-05-07T02:15:30;13.80;;;8.95;;
55114;SDS011;41010;53.252;5.786;2023-05-07T02:17:57;18.05;;;8.93;;
55114;SDS011;41010;53.252;5.786;2023-05-07T02:20:25;13.90;;;8.60;;
55114;SDS011;41010;53.252;5.786;2023-05-07T02:22:52;12.43;;;8.88;;
55114;SDS011;41010;53.252;5.786;2023-05-07T02:25:19;14.43;;;9.27;;
55114;SDS011;41010;53.252;5.786;2023-05-07T02:27:47;14.50;;;9.30;;
55114;SDS011;41010;53.252;5.786;2023-05-07T02:30:14;13.80;;;8.82;;
55114;SDS011;41010;53.252;5.786;2023-05-07T02:32:43;13.90;;;8.95;;
55114;SDS011;41010;53.252;5.786;2023-05-07T02:35:10;16.27;;;8.93;;
55114;SDS011;41010;53.252;5.786;2023-05-07T02:37:37;13.98;;;8.60;;
55114;SDS011;41010;53.252;5.786;2023-05-07T02:40:05;13.63;;;9.35;;
55114;SDS011;41010;53.252;5.786;2023-05-07T02:42:32;14.90;;;9.55;;
55114;SDS011;41010;53.252;5.786;2023-05-07T02:44:59;16.38;;;9.38;;
55114;SDS011;41010;53.252;5.786;2023-05-07T02:47:27;16.58;;;9.55;;
55114;SDS011;41010;53.252;5.786;2023-05-07T02:49:55;14.30;;;8.68;;
55114;SDS011;41010;53.252;5.786;2023-05-07T02:52:22;15.52;;;9.43;;
55114;SDS011;41010;53.252;5.786;2023-05-07T02:54:50;16.13;;;10.07;;
55114;SDS011;41010;53.252;5.786;2023-05-07T02:57:17;14.25;;;9.18;;
55114;SDS011;41010;53.252;5.786;2023-05-07T02:59:44;16.98;;;8.73;;
55114;SDS011;41010;53.252;5.786;2023-05-07T03:02:11;14.50;;;8.82;;
55114;SDS011;41010;53.252;5.786;2023-05-07T03:04:39;13.27;;;8.55;;
55114;SDS011;41010;53.252;5.786;2023-05-07T03:07:08;15.07;;;9.50;;
55114;SDS011;41010;53.252;5.786;2023-05-07T03:09:35;15.73;;;9.00;;
55114;SDS011;41010;53.252;5.786;2023-05-07T03:12:02;15.43;;;9.48;;
55114;SDS011;41010;53.252;5.786;2023-05-07T03:14:29;12.70;;;8.68;;
55114;SDS011;41010;53.252;5.786;2023-05-07T03:16:57;14.98;;;9.00;;
55114;SDS011;41010;53.252;5.786;2023-05-07T03:19:24;15.40;;;8.88;;
55114;SDS011;41010;53.252;5.786;2023-05-07T03:21:51;13.93;;;8.95;;
55114;SDS011;41010;53.252;5.786;2023-05-07T03:24:20;11.95;;;8.90;;
55114;SDS011;41010;53.252;5.786;2023-05-07T03:26:47;17.10;;;9.40;;
55114;SDS011;41010;53.252;5.786;2023-05-07T03:29:14;13.43;;;8.73;;
55114;SDS011;41010;53.252;5.786;2023-05-07T03:31:41;15.15;;;9.27;;
55114;SDS011;41010;53.252;5.786;2023-05-07T03:34:09;14.82;;;9.32;;
55114;SDS011;41010;53.252;5.786;2023-05-07T03:36:36;16.10;;;9.77;;
55114;SDS011;41010;53.252;5.786;2023-05-07T03:39:03;14.98;;;9.65;;
55114;SDS011;41010;53.252;5.786;2023-05-07T03:41:32;14.55;;;9.45;;
55114;SDS011;41010;53.252;5.786;2023-05-07T03:43:59;16.63;;;10.27;;
55114;SDS011;41010;53.252;5.786;2023-05-07T03:46:26;17.67;;;10.55;;
55114;SDS011;41010;53.252;5.786;2023-05-07T03:48:54;16.33;;;10.07;;
55114;SDS011;41010;53.252;5.786;2023-05-07T03:51:21;16.35;;;9.77;;
55114;SDS011;41010;53.252;5.786;2023-05-07T03:53:48;14.77;;;9.60;;
55114;SDS011;41010;53.252;5.786;2023-05-07T03:56:17;17.00;;;10.20;;
55114;SDS011;41010;53.252;5.786;2023-05-07T03:58:46;15.23;;;9.60;;
55114;SDS011;41010;53.252;5.786;2023-05-07T04:01:14;15.50;;;9.80;;
55114;SDS011;41010;53.252;5.786;2023-05-07T04:03:41;15.90;;;9.75;;
55114;SDS011;41010;53.252;5.786;2023-05-07T04:06:08;19.77;;;10.05;;
55114;SDS011;41010;53.252;5.786;2023-05-07T04:08:35;15.95;;;9.90;;
55114;SDS011;41010;53.252;5.786;2023-05-07T04:11:03;17.75;;;10.30;;
55114;SDS011;41010;53.252;5.786;2023-05-07T04:13:30;16.20;;;10.63;;
55114;SDS011;41010;53.252;5.786;2023-05-07T04:16:00;16.70;;;10.00;;
55114;SDS011;41010;53.252;5.786;2023-05-07T04:18:28;16.60;;;10.63;;
55114;SDS011;41010;53.252;5.786;2023-05-07T04:20:55;19.73;;;10.57;;
55114;SDS011;41010;53.252;5.786;2023-05-07T04:23:22;19.13;;;10.85;;
55114;SDS011;41010;53.252;5.786;2023-05-07T04:25:49;18.35;;;10.77;;
55114;SDS011;41010;53.252;5.786;2023-05-07T04:28:17;17.67;;;11.13;;
55114;SDS011;41010;53.252;5.786;2023-05-07T04:30:44;20.20;;;10.80;;
55114;SDS011;41010;53.252;5.786;2023-05-07T04:33:13;20.17;;;11.98;;
55114;SDS011;41010;53.252;5.786;2023-05-07T04:35:41;19.40;;;11.32;;
55114;SDS011;41010;53.252;5.786;2023-05-07T04:38:09;18.23;;;10.88;;
55114;SDS011;41010;53.252;5.786;2023-05-07T04:40:36;19.17;;;11.38;;
55114;SDS011;41010;53.252;5.786;2023-05-07T04:43:04;19.98;;;11.80;;
55114;SDS011;41010;53.252;5.786;2023-05-07T04:45:32;20.90;;;11.75;;
55114;SDS011;41010;53.252;5.786;2023-05-07T04:48:00;22.40;;;11.60;;
55114;SDS011;41010;53.252;5.786;2023-05-07T04:50:28;23.52;;;12.52;;
55114;SDS011;41010;53.252;5.786;2023-05-07T04:52:56;21.77;;;12.63;;
55114;SDS011;41010;53.252;5.786;2023-05-07T04:55:23;19.95;;;12.05;;
55114;SDS011;41010;53.252;5.786;2023-05-07T04:57:51;21.92;;;11.82;;
55114;SDS011;41010;53.252;5.786;2023-05-07T05:00:19;24.63;;;12.57;;
55114;SDS011;41010;53.252;5.786;2023-05-07T05:02:46;20.80;;;12.52;;
55114;SDS011;41010;53.252;5.786;2023-05-07T05:05:13;20.33;;;11.32;;
55114;SDS011;41010;53.252;5.786;2023-05-07T05:07:42;25.30;;;12.50;;
55114;SDS011;41010;53.252;5.786;2023-05-07T05:10:09;23.50;;;12.45;;
55114;SDS011;41010;53.252;5.786;2023-05-07T05:12:36;24.85;;;12.45;;
55114;SDS011;41010;53.252;5.786;2023-05-07T05:15:04;23.25;;;12.68;;
55114;SDS011;41010;53.252;5.786;2023-05-07T05:17:31;21.92;;;12.60;;
55114;SDS011;41010;53.252;5.786;2023-05-07T05:20:00;25.20;;;13.30;;
55114;SDS011;41010;53.252;5.786;2023-05-07T05:22:27;22.73;;;12.80;;
55114;SDS011;41010;53.252;5.786;2023-05-07T05:24:57;23.75;;;12.55;;
55114;SDS011;41010;53.252;5.786;2023-05-07T05:27:25;24.27;;;12.63;;
55114;SDS011;41010;53.252;5.786;2023-05-07T05:29:53;20.27;;;11.65;;
55114;SDS011;41010;53.252;5.786;2023-05-07T05:32:20;22.15;;;12.02;;
55114;SDS011;41010;53.252;5.786;2023-05-07T05:34:47;22.55;;;12.30;;
55114;SDS011;41010;53.252;5.786;2023-05-07T05:37:14;23.08;;;12.73;;
55114;SDS011;41010;53.252;5.786;2023-05-07T05:39:42;23.70;;;12.63;;
55114;SDS011;41010;53.252;5.786;2023-05-07T05:42:10;23.88;;;13.48;;
55114;SDS011;41010;53.252;5.786;2023-05-07T05:44:37;20.13;;;12.15;;
55114;SDS011;41010;53.252;5.786;2023-05-07T05:47:05;23.77;;;13.00;;
55114;SDS011;41010;53.252;5.786;2023-05-07T05:49:32;24.75;;;12.23;;
55114;SDS011;41010;53.252;5.786;2023-05-07T05:51:59;20.42;;;12.07;;
55114;SDS011;41010;53.252;5.786;2023-05-07T05:54:26;23.48;;;12.77;;
55114;SDS011;41010;53.252;5.786;2023-05-07T05:56:54;24.35;;;12.80;;
55114;SDS011;41010;53.252;5.786;2023-05-07T05:59:23;23.73;;;13.02;;
55114;SDS011;41010;53.252;5.786;2023-05-07T06:01:50;22.45;;;12.10;;
55114;SDS011;41010;53.252;5.786;2023-05-07T06:04:17;23.60;;;12.40;;
55114;SDS011;41010;53.252;5.786;2023-05-07T06:06:44;26.65;;;13.02;;
55114;SDS011;41010;53.252;5.786;2023-05-07T06:09:12;22.67;;;12.40;;
55114;SDS011;41010;53.252;5.786;2023-05-07T06:11:39;24.48;;;12.77;;
55114;SDS011;41010;53.252;5.786;2023-05-07T06:14:06;21.42;;;12.68;;
55114;SDS011;41010;53.252;5.786;2023-05-07T06:16:35;25.38;;;12.50;;
55114;SDS011;41010;53.252;5.786;2023-05-07T06:19:03;25.40;;;13.50;;
55114;SDS011;41010;53.252;5.786;2023-05-07T06:21:30;28.70;;;12.75;;
55114;SDS011;41010;53.252;5.786;2023-05-07T06:23:57;20.45;;;12.02;;
55114;SDS011;41010;53.252;5.786;2023-05-07T06:26:24;22.83;;;12.70;;
55114;SDS011;41010;53.252;5.786;2023-05-07T06:28:52;22.42;;;12.43;;
55114;SDS011;41010;53.252;5.786;2023-05-07T06:31:19;22.67;;;12.02;;
55114;SDS011;41010;53.252;5.786;2023-05-07T06:33:48;23.45;;;12.35;;
55114;SDS011;41010;53.252;5.786;2023-05-07T06:36:15;21.80;;;11.30;;
55114;SDS011;41010;53.252;5.786;2023-05-07T06:38:42;20.55;;;12.30;;
55114;SDS011;41010;53.252;5.786;2023-05-07T06:41:10;23.52;;;12.20;;
55114;SDS011;41010;53.252;5.786;2023-05-07T06:43:37;20.38;;;11.48;;
55114;SDS011;41010;53.252;5.786;2023-05-07T06:46:04;21.65;;;11.95;;
55114;SDS011;41010;53.252;5.786;2023-05-07T06:48:31;21.27;;;11.10;;
55114;SDS011;41010;53.252;5.786;2023-05-07T06:51:00;18.65;;;11.70;;
55114;SDS011;41010;53.252;5.786;2023-05-07T06:53:27;22.88;;;11.90;;
55114;SDS011;41010;53.252;5.786;2023-05-07T06:55:55;22.08;;;12.05;;
55114;SDS011;41010;53.252;5.786;2023-05-07T06:58:23;20.08;;;11.48;;
55114;SDS011;41010;53.252;5.786;2023-05-07T07:00:50;18.30;;;10.90;;
55114;SDS011;41010;53.252;5.786;2023-05-07T07:03:17;19.92;;;10.75;;
55114;SDS011;41010;53.252;5.786;2023-05-07T07:05:44;20.13;;;11.55;;
55114;SDS011;41010;53.252;5.786;2023-05-07T07:08:13;22.50;;;12.60;;
55114;SDS011;41010;53.252;5.786;2023-05-07T07:10:43;18.80;;;11.57;;
55114;SDS011;41010;53.252;5.786;2023-05-07T07:13:10;19.33;;;11.07;;
55114;SDS011;41010;53.252;5.786;2023-05-07T07:15:37;17.83;;;11.40;;
55114;SDS011;41010;53.252;5.786;2023-05-07T07:18:05;17.67;;;11.35;;
55114;SDS011;41010;53.252;5.786;2023-05-07T07:20:32;18.40;;;11.23;;
55114;SDS011;41010;53.252;5.786;2023-05-07T07:22:59;16.65;;;10.45;;
55114;SDS011;41010;53.252;5.786;2023-05-07T07:25:28;17.15;;;10.82;;
55114;SDS011;41010;53.252;5.786;2023-05-07T07:27:55;18.85;;;10.63;;
55114;SDS011;41010;53.252;5.786;2023-05-07T07:30:23;18.73;;;10.68;;
55114;SDS011;41010;53.252;5.786;2023-05-07T07:32:51;17.42;;;10.50;;
55114;SDS011;41010;53.252;5.786;2023-05-07T07:35:18;16.85;;;9.70;;
55114;SDS011;41010;53.252;5.786;2023-05-07T07:37:46;20.08;;;11.07;;
55114;SDS011;41010;53.252;5.786;2023-05-07T07:40:15;16.98;;;10.43;;
55114;SDS011;41010;53.252;5.786;2023-05-07T07:42:43;17.67;;;10.52;;
55114;SDS011;41010;53.252;5.786;2023-05-07T07:45:10;16.90;;;10.30;;
55114;SDS011;41010;53.252;5.786;2023-05-07T07:47:38;16.85;;;9.98;;
55114;SDS011;41010;53.252;5.786;2023-05-07T07:50:06;16.95;;;10.95;;
55114;SDS011;41010;53.252;5.786;2023-05-07T07:52:33;16.10;;;10.25;;
55114;SDS011;41010;53.252;5.786;2023-05-07T07:55:01;14.85;;;10.00;;
55114;SDS011;41010;53.252;5.786;2023-05-07T07:57:28;16.80;;;10.00;;
55114;SDS011;41010;53.252;5.786;2023-05-07T07:59:57;16.10;;;10.10;;
55114;SDS011;41010;53.252;5.786;2023-05-07T08:02:24;16.23;;;10.40;;
55114;SDS011;41010;53.252;5.786;2023-05-07T08:04:51;14.15;;;9.80;;
55114;SDS011;41010;53.252;5.786;2023-05-07T08:07:18;15.20;;;10.35;;
55114;SDS011;41010;53.252;5.786;2023-05-07T08:09:47;15.35;;;9.82;;
55114;SDS011;41010;53.252;5.786;2023-05-07T08:12:15;14.80;;;9.48;;
55114;SDS011;41010;53.252;5.786;2023-05-07T08:14:42;14.88;;;9.48;;
55114;SDS011;41010;53.252;5.786;2023-05-07T08:17:11;16.17;;;9.88;;
55114;SDS011;41010;53.252;5.786;2023-05-07T08:19:40;16.58;;;10.23;;
55114;SDS011;41010;53.252;5.786;2023-05-07T08:22:08;15.68;;;9.75;;
55114;SDS011;41010;53.252;5.786;2023-05-07T08:24:35;15.45;;;10.27;;
55114;SDS011;41010;53.252;5.786;2023-05-07T08:27:03;13.52;;;9.05;;
55114;SDS011;41010;53.252;5.786;2023-05-07T08:29:30;14.63;;;9.48;;
55114;SDS011;41010;53.252;5.786;2023-05-07T08:31:57;14.63;;;9.10;;
55114;SDS011;41010;53.252;5.786;2023-05-07T08:34:26;16.30;;;9.73;;
55114;SDS011;41010;53.252;5.786;2023-05-07T08:36:53;12.88;;;8.88;;
55114;SDS011;41010;53.252;5.786;2023-05-07T08:39:20;13.50;;;8.93;;
55114;SDS011;41010;53.252;5.786;2023-05-07T08:41:48;14.48;;;10.05;;
55114;SDS011;41010;53.252;5.786;2023-05-07T08:44:15;15.10;;;8.90;;
55114;SDS011;41010;53.252;5.786;2023-05-07T08:46:43;12.68;;;8.88;;
55114;SDS011;41010;53.252;5.786;2023-05-07T08:49:13;14.80;;;8.70;;
55114;SDS011;41010;53.252;5.786;2023-05-07T08:51:42;14.68;;;9.15;;
55114;SDS011;41010;53.252;5.786;2023-05-07T08:54:09;13.88;;;8.68;;
55114;SDS011;41010;53.252;5.786;2023-05-07T08:56:37;14.77;;;9.55;;
55114;SDS011;41010;53.252;5.786;2023-05-07T08:59:05;15.32;;;8.60;;
55114;SDS011;41010;53.252;5.786;2023-05-07T09:01:33;14.60;;;9.23;;
55114;SDS011;41010;53.252;5.786;2023-05-07T09:04:01;14.38;;;8.90;;
55114;SDS011;41010;53.252;5.786;2023-05-07T09:06:28;17.38;;;9.25;;
55114;SDS011;41010;53.252;5.786;2023-05-07T09:08:57;16.08;;;9.38;;
55114;SDS011;41010;53.252;5.786;2023-05-07T09:11:26;15.60;;;9.35;;
55114;SDS011;41010;53.252;5.786;2023-05-07T09:13:54;16.73;;;9.55;;
55114;SDS011;41010;53.252;5.786;2023-05-07T09:16:23;13.43;;;9.25;;
55114;SDS011;41010;53.252;5.786;2023-05-07T09:18:53;15.55;;;10.10;;
55114;SDS011;41010;53.252;5.786;2023-05-07T09:21:21;18.60;;;10.10;;
55114;SDS011;41010;53.252;5.786;2023-05-07T09:23:50;14.02;;;9.20;;
55114;SDS011;41010;53.252;5.786;2023-05-07T09:26:19;13.27;;;9.00;;
55114;SDS011;41010;53.252;5.786;2023-05-07T09:28:47;13.90;;;9.50;;
55114;SDS011;41010;53.252;5.786;2023-05-07T09:31:15;14.20;;;9.77;;
55114;SDS011;41010;53.252;5.786;2023-05-07T09:33:42;13.25;;;9.48;;
55114;SDS011;41010;53.252;5.786;2023-05-07T09:36:09;12.18;;;8.65;;
55114;SDS011;41010;53.252;5.786;2023-05-07T09:38:37;15.35;;;8.90;;
55114;SDS011;41010;53.252;5.786;2023-05-07T09:41:05;13.93;;;9.07;;
55114;SDS011;41010;53.252;5.786;2023-05-07T09:43:34;13.30;;;9.07;;
55114;SDS011;41010;53.252;5.786;2023-05-07T09:46:06;14.45;;;9.13;;
55114;SDS011;41010;53.252;5.786;2023-05-07T09:48:35;14.63;;;9.52;;
55114;SDS011;41010;53.252;5.786;2023-05-07T09:51:05;12.75;;;9.27;;
55114;SDS011;41010;53.252;5.786;2023-05-07T09:53:34;12.73;;;8.95;;
55114;SDS011;41010;53.252;5.786;2023-05-07T09:56:02;12.60;;;9.48;;
55114;SDS011;41010;53.252;5.786;2023-05-07T09:58:29;13.85;;;9.00;;
55114;SDS011;41010;53.252;5.786;2023-05-07T10:00:59;12.90;;;8.88;;
55114;SDS011;41010;53.252;5.786;2023-05-07T10:03:27;13.38;;;9.10;;
55114;SDS011;41010;53.252;5.786;2023-05-07T10:05:55;15.40;;;9.55;;
55114;SDS011;41010;53.252;5.786;2023-05-07T10:08:22;12.73;;;8.60;;
55114;SDS011;41010;53.252;5.786;2023-05-07T10:10:49;15.50;;;9.00;;
55114;SDS011;41010;53.252;5.786;2023-05-07T10:13:17;13.73;;;9.43;;
55114;SDS011;41010;53.252;5.786;2023-05-07T10:15:45;12.75;;;8.88;;
55114;SDS011;41010;53.252;5.786;2023-05-07T10:18:15;13.43;;;9.30;;
55114;SDS011;41010;53.252;5.786;2023-05-07T10:20:43;14.88;;;9.45;;
55114;SDS011;41010;53.252;5.786;2023-05-07T10:23:12;12.95;;;8.82;;
55114;SDS011;41010;53.252;5.786;2023-05-07T10:25:40;14.40;;;9.50;;
55114;SDS011;41010;53.252;5.786;2023-05-07T10:28:08;12.20;;;8.23;;
55114;SDS011;41010;53.252;5.786;2023-05-07T10:30:38;14.13;;;8.88;;
55114;SDS011;41010;53.252;5.786;2023-05-07T10:33:07;13.68;;;9.45;;
55114;SDS011;41010;53.252;5.786;2023-05-07T10:35:37;13.95;;;9.63;;
55114;SDS011;41010;53.252;5.786;2023-05-07T10:38:05;12.75;;;8.68;;
55114;SDS011;41010;53.252;5.786;2023-05-07T10:40:33;12.27;;;8.48;;
55114;SDS011;41010;53.252;5.786;2023-05-07T10:43:01;12.95;;;9.00;;
55114;SDS011;41010;53.252;5.786;2023-05-07T10:45:30;13.48;;;9.00;;
55114;SDS011;41010;53.252;5.786;2023-05-07T10:48:07;13.23;;;9.02;;
55114;SDS011;41010;53.252;5.786;2023-05-07T10:50:34;13.20;;;9.20;;
55114;SDS011;41010;53.252;5.786;2023-05-07T10:53:22;12.15;;;8.10;;
55114;SDS011;41010;53.252;5.786;2023-05-07T10:58:51;14.50;;;9.18;;
55114;SDS011;41010;53.252;5.786;2023-05-07T11:04:12;12.35;;;9.07;;
55114;SDS011;41010;53.252;5.786;2023-05-07T11:06:40;14.32;;;8.90;;
55114;SDS011;41010;53.252;5.786;2023-05-07T11:09:08;12.60;;;9.23;;
55114;SDS011;41010;53.252;5.786;2023-05-07T11:11:46;15.30;;;10.15;;
55114;SDS011;41010;53.252;5.786;2023-05-07T11:14:30;13.73;;;8.70;;
55114;SDS011;41010;53.252;5.786;2023-05-07T11:17:09;14.27;;;9.70;;
55114;SDS011;41010;53.252;5.786;2023-05-07T11:19:47;11.95;;;8.75;;
55114;SDS011;41010;53.252;5.786;2023-05-07T11:25:00;12.80;;;9.07;;
55114;SDS011;41010;53.252;5.786;2023-05-07T11:27:27;12.43;;;9.15;;
55114;SDS011;41010;53.252;5.786;2023-05-07T11:29:55;12.48;;;8.98;;
55114;SDS011;41010;53.252;5.786;2023-05-07T11:32:22;12.70;;;9.30;;
55114;SDS011;41010;53.252;5.786;2023-05-07T11:34:51;12.85;;;9.35;;
55114;SDS011;41010;53.252;5.786;2023-05-07T11:37:19;14.10;;;9.30;;
55114;SDS011;41010;53.252;5.786;2023-05-07T11:39:46;11.18;;;8.32;;
55114;SDS011;41010;53.252;5.786;2023-05-07T11:42:28;13.65;;;9.18;;
55114;SDS011;41010;53.252;5.786;2023-05-07T11:44:56;12.00;;;8.27;;
55114;SDS011;41010;53.252;5.786;2023-05-07T11:47:24;12.90;;;8.52;;
55114;SDS011;41010;53.252;5.786;2023-05-07T11:49:52;11.85;;;8.43;;
55114;SDS011;41010;53.252;5.786;2023-05-07T11:52:20;11.77;;;9.13;;
55114;SDS011;41010;53.252;5.786;2023-05-07T11:54:50;12.18;;;8.10;;
55114;SDS011;41010;53.252;5.786;2023-05-07T11:57:18;11.40;;;8.27;;
55114;SDS011;41010;53.252;5.786;2023-05-07T11:59:47;10.70;;;7.93;;
55114;SDS011;41010;53.252;5.786;2023-05-07T12:02:15;13.82;;;8.20;;
55114;SDS011;41010;53.252;5.786;2023-05-07T12:04:42;11.55;;;8.20;;
55114;SDS011;41010;53.252;5.786;2023-05-07T12:07:11;10.32;;;7.13;;
55114;SDS011;41010;53.252;5.786;2023-05-07T12:09:38;9.23;;;7.00;;
55114;SDS011;41010;53.252;5.786;2023-05-07T12:12:06;10.25;;;8.07;;
55114;SDS011;41010;53.252;5.786;2023-05-07T12:14:37;9.30;;;7.95;;
55114;SDS011;41010;53.252;5.786;2023-05-07T12:17:06;9.43;;;7.28;;
55114;SDS011;41010;53.252;5.786;2023-05-07T12:19:34;8.80;;;6.85;;
55114;SDS011;41010;53.252;5.786;2023-05-07T12:22:02;9.90;;;7.60;;
55114;SDS011;41010;53.252;5.786;2023-05-07T12:24:41;12.05;;;7.53;;
55114;SDS011;41010;53.252;5.786;2023-05-07T12:27:08;10.40;;;7.80;;
55114;SDS011;41010;53.252;5.786;2023-05-07T12:29:36;35.90;;;8.18;;
55114;SDS011;41010;53.252;5.786;2023-05-07T12:32:04;8.85;;;7.10;;
55114;SDS011;41010;53.252;5.786;2023-05-07T12:34:34;9.60;;;7.70;;
55114;SDS011;41010;53.252;5.786;2023-05-07T12:37:01;8.27;;;6.88;;
55114;SDS011;41010;53.252;5.786;2023-05-07T12:39:29;8.93;;;6.43;;
55114;SDS011;41010;53.252;5.786;2023-05-07T12:41:58;9.02;;;6.70;;
55114;SDS011;41010;53.252;5.786;2023-05-07T12:44:26;8.90;;;6.78;;
55114;SDS011;41010;53.252;5.786;2023-05-07T12:46:55;9.20;;;7.20;;
55114;SDS011;41010;53.252;5.786;2023-05-07T12:49:23;8.10;;;6.32;;
55114;SDS011;41010;53.252;5.786;2023-05-07T12:51:52;8.48;;;6.85;;
55114;SDS011;41010;53.252;5.786;2023-05-07T12:54:29;8.88;;;6.35;;
55114;SDS011;41010;53.252;5.786;2023-05-07T12:57:00;8.30;;;6.35;;
55114;SDS011;41010;53.252;5.786;2023-05-07T12:59:32;7.65;;;6.72;;
55114;SDS011;41010;53.252;5.786;2023-05-07T13:01:59;8.05;;;6.22;;
55114;SDS011;41010;53.252;5.786;2023-05-07T13:04:27;8.25;;;6.95;;
55114;SDS011;41010;53.252;5.786;2023-05-07T13:06:55;7.68;;;6.25;;
55114;SDS011;41010;53.252;5.786;2023-05-07T13:09:22;9.02;;;6.25;;
55114;SDS011;41010;53.252;5.786;2023-05-07T13:11:50;8.63;;;7.18;;
55114;SDS011;41010;53.252;5.786;2023-05-07T13:14:17;7.80;;;6.82;;
55114;SDS011;41010;53.252;5.786;2023-05-07T13:16:45;7.32;;;6.32;;
55114;SDS011;41010;53.252;5.786;2023-05-07T13:19:13;7.57;;;6.38;;
55114;SDS011;41010;53.252;5.786;2023-05-07T13:21:40;6.72;;;5.65;;
55114;SDS011;41010;53.252;5.786;2023-05-07T13:24:09;8.48;;;7.40;;
55114;SDS011;41010;53.252;5.786;2023-05-07T13:26:36;8.27;;;6.90;;
55114;SDS011;41010;53.252;5.786;2023-05-07T13:29:03;7.85;;;6.47;;
55114;SDS011;41010;53.252;5.786;2023-05-07T13:31:30;8.38;;;6.47;;
55114;SDS011;41010;53.252;5.786;2023-05-07T13:33:58;8.95;;;7.10;;
55114;SDS011;41010;53.252;5.786;2023-05-07T13:36:26;7.88;;;6.53;;
55114;SDS011;41010;53.252;5.786;2023-05-07T13:38:53;7.85;;;6.20;;
55114;SDS011;41010;53.252;5.786;2023-05-07T13:41:22;7.47;;;6.18;;
55114;SDS011;41010;53.252;5.786;2023-05-07T13:43:49;6.65;;;5.75;;
55114;SDS011;41010;53.252;5.786;2023-05-07T13:46:16;7.90;;;7.10;;
55114;SDS011;41010;53.252;5.786;2023-05-07T13:48:43;6.43;;;5.78;;
55114;SDS011;41010;53.252;5.786;2023-05-07T13:51:11;7.80;;;6.05;;
55114;SDS011;41010;53.252;5.786;2023-05-07T13:53:38;7.72;;;6.15;;
55114;SDS011;41010;53.252;5.786;2023-05-07T13:56:05;7.20;;;6.25;;
55114;SDS011;41010;53.252;5.786;2023-05-07T13:58:34;7.45;;;6.50;;
55114;SDS011;41010;53.252;5.786;2023-05-07T14:01:02;7.80;;;7.00;;
55114;SDS011;41010;53.252;5.786;2023-05-07T14:03:29;8.73;;;6.70;;
55114;SDS011;41010;53.252;5.786;2023-05-07T14:05:56;6.82;;;6.10;;
55114;SDS011;41010;53.252;5.786;2023-05-07T14:08:25;7.05;;;5.95;;
55114;SDS011;41010;53.252;5.786;2023-05-07T14:10:52;7.95;;;6.38;;
55114;SDS011;41010;53.252;5.786;2023-05-07T14:13:19;7.93;;;6.80;;
55114;SDS011;41010;53.252;5.786;2023-05-07T14:15:48;8.02;;;6.22;;
55114;SDS011;41010;53.252;5.786;2023-05-07T14:18:15;7.78;;;6.28;;
55114;SDS011;41010;53.252;5.786;2023-05-07T14:20:42;7.80;;;6.68;;
55114;SDS011;41010;53.252;5.786;2023-05-07T14:23:11;7.78;;;6.57;;
55114;SDS011;41010;53.252;5.786;2023-05-07T14:25:39;8.10;;;6.80;;
55114;SDS011;41010;53.252;5.786;2023-05-07T14:28:08;6.32;;;5.72;;
55114;SDS011;41010;53.252;5.786;2023-05-07T14:30:35;7.30;;;5.70;;
55114;SDS011;41010;53.252;5.786;2023-05-07T14:33:04;8.48;;;6.55;;
55114;SDS011;41010;53.252;5.786;2023-05-07T14:35:31;8.02;;;6.72;;
55114;SDS011;41010;53.252;5.786;2023-05-07T14:38:05;8.90;;;6.78;;
55114;SDS011;41010;53.252;5.786;2023-05-07T14:40:32;7.60;;;6.35;;
55114;SDS011;41010;53.252;5.786;2023-05-07T14:42:59;6.70;;;6.00;;
55114;SDS011;41010;53.252;5.786;2023-05-07T14:45:26;7.25;;;6.25;;